createdAt,value
2023-03-24T00:01:17.444Z,23.63
2023-03-24T00:03:52.431Z,26.92
2023-03-24T00:06:22.732Z,26.95
2023-03-24T00:08:50.348Z,25.25
2023-03-24T00:11:19.510Z,28.50
2023-03-24T00:13:50.450Z,25.40
2023-03-24T00:16:19.593Z,26.45
2023-03-24T00:18:52.990Z,23.83
2023-03-24T00:21:25.182Z,27.85
2023-03-24T00:23:55.353Z,27.63
2023-03-24T00:26:25.266Z,26.55
2023-03-24T00:28:53.456Z,22.50
2023-03-24T00:31:20.744Z,28.95
2023-03-24T00:33:51.097Z,28.13
2023-03-24T00:36:22.127Z,25.25
2023-03-24T00:38:50.232Z,25.83
2023-03-24T00:41:20.166Z,28.40
2023-03-24T00:43:49.852Z,32.22
2023-03-24T00:46:27.703Z,27.00
2023-03-24T00:49:02.629Z,22.75
2023-03-24T00:51:39.588Z,24.92
2023-03-24T00:54:09.285Z,28.85
2023-03-24T00:56:40.798Z,28.05
2023-03-24T00:59:10.230Z,24.55
2023-03-24T01:01:40.975Z,24.23
2023-03-24T01:04:08.711Z,29.30
2023-03-24T01:06:40.022Z,27.77
2023-03-24T01:09:07.889Z,29.80
2023-03-24T01:11:40.047Z,32.10
2023-03-24T01:14:09.768Z,26.75
2023-03-24T01:16:37.472Z,21.83
2023-03-24T01:19:05.372Z,25.52
2023-03-24T01:21:35.261Z,28.92
2023-03-24T01:24:03.377Z,28.98
2023-03-24T01:26:31.213Z,24.55
2023-03-24T01:28:58.463Z,30.02
2023-03-24T01:31:26.223Z,28.45
2023-03-24T01:33:53.396Z,39.75
2023-03-24T01:36:20.550Z,27.52
2023-03-24T01:38:47.677Z,27.23
2023-03-24T01:41:14.863Z,30.85
2023-03-24T01:43:43.448Z,28.13
2023-03-24T01:46:22.470Z,32.25
2023-03-24T01:49:06.365Z,33.70
2023-03-24T01:51:39.245Z,31.38
2023-03-24T01:54:18.952Z,29.40
2023-03-24T01:56:55.581Z,28.60
2023-03-24T01:59:29.268Z,34.58
2023-03-24T02:02:03.431Z,29.58
2023-03-24T02:04:38.818Z,35.17
2023-03-24T02:07:16.072Z,28.20
2023-03-24T02:09:43.222Z,29.55
2023-03-24T02:12:10.539Z,31.48
2023-03-24T02:14:37.886Z,29.08
2023-03-24T02:17:23.435Z,29.73
2023-03-24T02:20:49.205Z,24.08
2023-03-24T02:23:50.125Z,29.75
2023-03-24T02:26:35.183Z,26.52
2023-03-24T02:29:23.561Z,28.70
2023-03-24T02:32:30.784Z,26.23
2023-03-24T02:35:45.464Z,26.83
2023-03-24T02:39:18.044Z,30.27
2023-03-24T02:42:31.496Z,28.77
2023-03-24T02:45:35.866Z,30.13
2023-03-24T02:48:42.961Z,40.55
2023-03-24T02:51:18.603Z,28.33
2023-03-24T02:54:32.272Z,29.63
2023-03-24T02:57:36.202Z,27.42
2023-03-24T03:00:20.091Z,30.15
2023-03-24T03:03:14.296Z,26.27
2023-03-24T03:05:59.435Z,28.35
2023-03-24T03:08:32.499Z,27.45
2023-03-24T03:11:02.308Z,31.33
2023-03-24T03:13:39.325Z,27.40
2023-03-24T03:16:25.409Z,28.67
2023-03-24T03:21:29.593Z,27.13
2023-03-24T03:24:02.424Z,30.42
2023-03-24T03:26:33.119Z,26.33
2023-03-24T03:29:09.459Z,25.60
2023-03-24T03:31:50.969Z,36.90
2023-03-24T03:34:42.263Z,29.38
2023-03-24T03:37:56.160Z,31.67
2023-03-24T03:40:59.447Z,33.55
2023-03-24T03:43:27.997Z,31.23
2023-03-24T03:45:56.125Z,29.05
2023-03-24T03:48:26.470Z,28.15
2023-03-24T03:51:10.327Z,26.63
2023-03-24T03:54:04.031Z,27.10
2023-03-24T03:56:34.208Z,28.45
2023-03-24T03:59:04.147Z,27.65
2023-03-24T04:01:37.308Z,25.67
2023-03-24T04:04:04.502Z,27.75
2023-03-24T04:07:15.061Z,26.73
2023-03-24T04:10:19.398Z,25.75
2023-03-24T04:13:01.200Z,26.13
2023-03-24T04:15:54.426Z,29.88
2023-03-24T04:18:33.756Z,29.88
2023-03-24T04:21:28.635Z,24.60
2023-03-24T04:24:27.539Z,30.70
2023-03-24T04:27:22.133Z,22.42
2023-03-24T04:30:16.463Z,26.13
2023-03-24T04:33:06.708Z,27.15
2023-03-24T04:35:44.718Z,23.52
2023-03-24T04:38:23.136Z,27.13
2023-03-24T04:40:55.623Z,23.95
2023-03-24T04:43:29.132Z,23.95
2023-03-24T04:45:58.014Z,26.75
2023-03-24T04:48:26.267Z,21.92
2023-03-24T04:51:03.746Z,24.50
2023-03-24T04:53:31.045Z,21.40
2023-03-24T04:56:12.950Z,21.58
2023-03-24T04:58:40.135Z,22.10
2023-03-24T05:01:09.155Z,23.30
2023-03-24T05:03:38.217Z,26.73
2023-03-24T05:06:05.959Z,24.73
2023-03-24T05:08:33.387Z,21.25
2023-03-24T05:11:00.551Z,18.92
2023-03-24T05:13:27.651Z,26.45
2023-03-24T05:15:55.064Z,20.70
2023-03-24T05:18:22.282Z,23.05
2023-03-24T05:20:49.548Z,22.17
2023-03-24T05:23:17.106Z,21.38
2023-03-24T05:25:46.859Z,19.35
2023-03-24T05:28:14.166Z,18.90
2023-03-24T05:30:41.432Z,22.55
2023-03-24T05:33:08.645Z,21.77
2023-03-24T05:35:36.031Z,21.33
2023-03-24T05:38:03.144Z,18.65
2023-03-24T05:40:30.260Z,21.02
2023-03-24T05:42:57.400Z,18.70
2023-03-24T05:45:25.454Z,20.73
2023-03-24T05:47:52.693Z,23.75
2023-03-24T05:50:21.149Z,23.70
2023-03-24T05:52:48.240Z,25.95
2023-03-24T05:55:16.136Z,34.00
2023-03-24T05:57:43.583Z,30.38
2023-03-24T06:00:16.822Z,31.88
2023-03-24T06:02:46.485Z,31.13
2023-03-24T06:05:14.086Z,29.00
2023-03-24T06:07:44.539Z,27.25
2023-03-24T06:10:14.427Z,29.27
2023-03-24T06:12:42.781Z,27.95
2023-03-24T06:15:10.994Z,24.95
2023-03-24T06:17:38.445Z,26.92
2023-03-24T06:20:13.971Z,26.95
2023-03-24T06:22:42.651Z,32.88
2023-03-24T06:25:11.627Z,27.38
2023-03-24T06:27:42.569Z,27.90
2023-03-24T06:30:10.785Z,27.08
2023-03-24T06:32:38.497Z,29.83
2023-03-24T06:35:07.329Z,32.63
2023-03-24T06:37:34.437Z,25.92
2023-03-24T06:40:01.714Z,25.88
2023-03-24T06:42:28.869Z,31.25
2023-03-24T06:44:55.929Z,27.67
2023-03-24T06:47:23.104Z,27.13
2023-03-24T06:49:50.360Z,27.20
2023-03-24T06:52:17.432Z,25.92
2023-03-24T06:54:44.592Z,28.25
2023-03-24T06:57:11.962Z,28.63
2023-03-24T06:59:39.121Z,25.40
2023-03-24T07:02:06.548Z,26.63
2023-03-24T07:04:36.602Z,29.77
2023-03-24T07:07:19.574Z,26.52
2023-03-24T07:09:51.128Z,27.80
2023-03-24T07:12:18.309Z,21.90
2023-03-24T07:14:45.423Z,23.00
2023-03-24T07:17:12.561Z,18.52
2023-03-24T07:19:39.805Z,28.50
2023-03-24T07:22:08.408Z,19.67
2023-03-24T07:24:36.058Z,23.42
2023-03-24T07:27:04.035Z,24.42
2023-03-24T07:29:31.239Z,20.30
2023-03-24T07:31:58.918Z,28.27
2023-03-24T07:34:26.273Z,20.23
2023-03-24T07:36:53.467Z,21.80
2023-03-24T07:39:21.324Z,19.42
2023-03-24T07:41:48.441Z,19.90
2023-03-24T07:44:15.851Z,24.02
2023-03-24T07:46:43.208Z,20.55
2023-03-24T07:49:19.021Z,28.23
2023-03-24T07:51:47.154Z,22.17
2023-03-24T07:54:14.520Z,24.08
2023-03-24T07:56:42.102Z,20.33
2023-03-24T07:59:09.870Z,30.70
2023-03-24T08:01:38.576Z,26.73
2023-03-24T08:04:06.784Z,20.13
2023-03-24T08:06:34.868Z,22.60
2023-03-24T08:09:02.051Z,21.13
2023-03-24T08:11:29.204Z,34.58
2023-03-24T08:13:56.571Z,21.38
2023-03-24T08:16:24.834Z,24.23
2023-03-24T08:18:52.499Z,21.23
2023-03-24T08:21:19.674Z,23.17
2023-03-24T08:23:46.766Z,22.98
2023-03-24T08:26:13.859Z,23.88
2023-03-24T08:28:41.643Z,24.02
2023-03-24T08:31:09.144Z,20.80
2023-03-24T08:33:37.370Z,26.80
2023-03-24T08:36:06.714Z,19.88
2023-03-24T08:38:34.088Z,19.88
2023-03-24T08:41:06.941Z,26.85
2023-03-24T08:43:37.497Z,24.08
2023-03-24T08:46:10.561Z,26.05
2023-03-24T08:48:41.168Z,22.77
2023-03-24T08:51:17.523Z,23.95
2023-03-24T08:53:44.705Z,19.83
2023-03-24T08:56:12.038Z,18.38
2023-03-24T08:58:39.250Z,18.35
2023-03-24T09:01:07.681Z,14.77
2023-03-24T09:03:36.024Z,16.35
2023-03-24T09:06:03.296Z,17.67
2023-03-24T09:08:30.658Z,18.85
2023-03-24T09:11:00.800Z,28.42
2023-03-24T09:13:28.255Z,19.33
2023-03-24T09:16:02.301Z,18.92
2023-03-24T09:18:30.700Z,21.83
2023-03-24T09:20:57.850Z,15.90
2023-03-24T09:23:25.515Z,17.48
2023-03-24T09:25:56.719Z,20.23
2023-03-24T09:28:24.071Z,19.20
2023-03-24T09:30:56.215Z,15.25
2023-03-24T09:33:24.156Z,17.58
2023-03-24T09:36:00.381Z,19.70
2023-03-24T09:38:28.707Z,14.25
2023-03-24T09:41:01.573Z,20.80
2023-03-24T09:43:42.498Z,14.40
2023-03-24T09:46:23.927Z,16.40
2023-03-24T09:48:56.319Z,20.50
2023-03-24T09:51:32.701Z,15.25
2023-03-24T09:54:11.855Z,13.65
2023-03-24T09:56:45.023Z,20.27
2023-03-24T09:59:29.669Z,13.05
2023-03-24T10:01:57.939Z,13.95
2023-03-24T10:04:28.692Z,12.00
2023-03-24T10:07:26.768Z,13.93
2023-03-24T10:09:59.459Z,17.05
2023-03-24T10:12:39.453Z,11.60
2023-03-24T10:15:52.430Z,15.15
2023-03-24T10:18:53.884Z,20.40
2023-03-24T10:21:26.197Z,19.42
2023-03-24T10:24:30.081Z,17.60
2023-03-24T10:27:34.266Z,17.63
2023-03-24T10:30:12.336Z,14.35
2023-03-24T10:32:42.962Z,16.70
2023-03-24T10:35:43.787Z,12.90
2023-03-24T10:38:21.474Z,11.45
2023-03-24T10:40:49.595Z,14.02
2023-03-24T10:43:18.991Z,14.70
2023-03-24T10:45:52.042Z,13.43
2023-03-24T10:48:40.565Z,26.98
2023-03-24T10:51:20.008Z,24.60
2023-03-24T10:53:48.932Z,10.05
2023-03-24T10:56:38.417Z,16.85
2023-03-24T10:59:27.716Z,16.15
2023-03-24T11:02:23.890Z,19.65
2023-03-24T11:05:14.275Z,13.57
2023-03-24T11:07:48.953Z,13.10
2023-03-24T11:10:24.543Z,11.00
2023-03-24T11:16:17.177Z,14.02
2023-03-24T11:19:19.273Z,13.30
2023-03-24T11:21:51.399Z,19.70
2023-03-24T11:24:20.982Z,13.35
2023-03-24T11:27:02.195Z,13.43
2023-03-24T11:29:33.934Z,11.82
2023-03-24T11:32:07.774Z,11.05
2023-03-24T11:34:42.414Z,19.30
2023-03-24T11:37:18.433Z,13.73
2023-03-24T11:40:07.181Z,14.57
2023-03-24T11:42:34.286Z,11.35
2023-03-24T11:45:03.875Z,11.18
2023-03-24T11:47:38.908Z,25.25
2023-03-24T11:50:11.897Z,9.80
2023-03-24T11:53:02.440Z,12.98
2023-03-24T11:55:53.629Z,10.75
2023-03-24T11:58:35.583Z,12.85
2023-03-24T12:01:21.252Z,12.65
2023-03-24T12:04:15.536Z,15.55
2023-03-24T12:07:28.608Z,12.25
2023-03-24T12:10:21.377Z,13.60
2023-03-24T12:13:29.959Z,19.58
2023-03-24T12:16:34.897Z,12.10
2023-03-24T12:19:51.772Z,16.00
2023-03-24T12:23:08.621Z,13.63
2023-03-24T12:25:54.695Z,16.58
2023-03-24T12:28:36.260Z,13.38
2023-03-24T12:31:30.382Z,15.73
2023-03-24T12:34:48.095Z,16.48
2023-03-24T12:37:31.905Z,16.17
2023-03-24T12:40:41.287Z,24.08
2023-03-24T12:43:45.455Z,19.40
2023-03-24T12:46:50.943Z,15.02
2023-03-24T12:49:27.022Z,15.52
2023-03-24T12:52:15.072Z,13.05
2023-03-24T12:54:55.806Z,14.48
2023-03-24T12:57:28.466Z,13.10
2023-03-24T13:00:22.582Z,14.40
2023-03-24T13:03:06.709Z,16.88
2023-03-24T13:05:43.216Z,12.93
2023-03-24T13:08:23.068Z,15.55
2023-03-24T13:10:54.564Z,15.02
2023-03-24T13:13:32.962Z,20.05
2023-03-24T13:16:30.939Z,16.48
2023-03-24T13:19:00.520Z,16.58
2023-03-24T13:21:29.718Z,15.30
2023-03-24T13:24:05.459Z,15.57
2023-03-24T13:27:01.159Z,22.58
2023-03-24T13:29:52.778Z,13.98
2023-03-24T13:32:36.268Z,10.98
2023-03-24T13:35:18.795Z,17.05
2023-03-24T13:38:00.685Z,19.05
2023-03-24T13:40:32.761Z,18.80
2023-03-24T13:43:18.220Z,18.50
2023-03-24T13:46:00.903Z,17.15
2023-03-24T13:48:44.212Z,21.30
2023-03-24T13:51:18.251Z,11.75
2023-03-24T13:54:13.836Z,22.45
2023-03-24T13:56:52.688Z,13.30
2023-03-24T14:00:07.951Z,27.30
2023-03-24T14:02:51.284Z,15.63
2023-03-24T14:06:04.640Z,14.90
2023-03-24T14:08:43.962Z,20.88
2023-03-24T14:11:49.513Z,22.90
2023-03-24T14:14:18.310Z,21.35
2023-03-24T14:17:06.748Z,15.20
2023-03-24T14:20:02.076Z,34.15
2023-03-24T14:22:35.367Z,37.05
2023-03-24T14:25:17.338Z,46.05
2023-03-24T14:28:07.694Z,18.70
2023-03-24T14:30:38.170Z,13.88
2023-03-24T14:33:06.737Z,14.90
2023-03-24T14:35:37.251Z,18.33
2023-03-24T14:38:27.208Z,22.83
2023-03-24T14:41:06.146Z,14.88
2023-03-24T14:43:42.011Z,22.20
2023-03-24T14:46:21.089Z,17.60
2023-03-24T14:49:33.665Z,26.23
2023-03-24T14:52:12.331Z,12.90
2023-03-24T14:55:20.424Z,14.35
2023-03-24T14:58:02.541Z,27.17
2023-03-24T15:00:57.977Z,16.25
2023-03-24T15:04:11.269Z,22.95
2023-03-24T15:06:47.333Z,20.17
2023-03-24T15:09:18.133Z,23.35
2023-03-24T15:11:48.279Z,24.42
2023-03-24T15:14:26.525Z,16.10
2023-03-24T15:17:16.354Z,21.60
2023-03-24T15:19:43.783Z,15.38
2023-03-24T15:22:13.826Z,22.35
2023-03-24T15:24:48.426Z,11.07
2023-03-24T15:27:23.505Z,8.57
2023-03-24T15:29:59.469Z,9.18
2023-03-24T15:32:31.615Z,10.20
2023-03-24T15:35:05.710Z,9.95
2023-03-24T15:37:40.610Z,7.65
2023-03-24T15:40:31.087Z,9.45
2023-03-24T15:43:02.442Z,6.70
2023-03-24T15:45:33.976Z,6.57
2023-03-24T15:48:24.743Z,3.40
2023-03-24T15:51:11.752Z,3.63
2023-03-24T15:53:58.147Z,2.55
2023-03-24T15:56:26.502Z,6.35
2023-03-24T15:59:07.094Z,2.83
2023-03-24T16:01:36.339Z,2.38
2023-03-24T16:04:14.196Z,1.88
2023-03-24T16:06:48.698Z,2.85
2023-03-24T16:09:21.767Z,2.55
2023-03-24T16:11:49.636Z,6.57
2023-03-24T16:14:24.343Z,2.10
2023-03-24T16:16:57.011Z,1.60
2023-03-24T16:19:25.223Z,2.25
2023-03-24T16:21:52.544Z,2.78
2023-03-24T16:24:19.699Z,2.22
2023-03-24T16:26:46.952Z,4.50
2023-03-24T16:29:14.313Z,1.85
2023-03-24T16:31:41.496Z,3.17
2023-03-24T16:34:08.802Z,1.77
2023-03-24T16:36:36.424Z,2.15
2023-03-24T16:39:13.117Z,2.30
2023-03-24T16:41:40.627Z,4.07
2023-03-24T16:44:08.060Z,1.65
2023-03-24T16:46:36.471Z,1.75
2023-03-24T16:49:07.233Z,1.63
2023-03-24T16:51:35.253Z,3.00
2023-03-24T16:54:03.718Z,3.83
2023-03-24T16:56:31.394Z,3.65
2023-03-24T16:58:59.289Z,2.90
2023-03-24T17:01:39.875Z,3.70
2023-03-24T17:04:13.206Z,3.63
2023-03-24T17:06:49.328Z,1.88
2023-03-24T17:09:18.597Z,4.82
2023-03-24T17:11:57.671Z,2.85
2023-03-24T17:14:25.346Z,3.47
2023-03-24T17:16:53.872Z,2.97
2023-03-24T17:19:24.608Z,4.18
2023-03-24T17:22:03.830Z,6.43
2023-03-24T17:24:36.186Z,3.65
2023-03-24T17:27:16.864Z,8.60
2023-03-24T17:29:46.370Z,6.22
2023-03-24T17:32:14.031Z,5.00
2023-03-24T17:34:46.700Z,9.00
2023-03-24T17:37:14.518Z,9.55
2023-03-24T17:39:42.161Z,6.03
2023-03-24T17:42:10.177Z,8.25
2023-03-24T17:44:39.652Z,5.80
2023-03-24T17:47:07.622Z,5.20
2023-03-24T17:49:35.646Z,6.18
2023-03-24T17:52:03.745Z,8.02
2023-03-24T17:54:33.093Z,5.65
2023-03-24T17:57:05.351Z,7.63
2023-03-24T17:59:34.019Z,5.53
2023-03-24T18:02:03.086Z,6.32
2023-03-24T18:04:33.428Z,8.48
2023-03-24T18:07:02.668Z,6.50
2023-03-24T18:09:35.066Z,5.93
2023-03-24T18:12:03.167Z,4.90
2023-03-24T18:14:32.432Z,13.07
2023-03-24T18:17:04.885Z,6.63
2023-03-24T18:19:33.120Z,6.28
2023-03-24T18:22:01.307Z,7.82
2023-03-24T18:24:32.738Z,7.13
2023-03-24T18:27:04.113Z,6.70
2023-03-24T18:29:33.964Z,7.30
2023-03-24T18:32:02.521Z,9.07
2023-03-24T18:34:30.985Z,6.15
2023-03-24T18:37:00.051Z,8.35
2023-03-24T18:39:28.714Z,7.45
2023-03-24T18:41:57.323Z,13.43
2023-03-24T18:44:26.066Z,13.25
2023-03-24T18:46:55.607Z,11.55
2023-03-24T18:49:24.348Z,11.85
2023-03-24T18:51:54.744Z,11.13
2023-03-24T18:54:26.898Z,12.65
2023-03-24T18:56:58.362Z,14.50
2023-03-24T18:59:29.274Z,12.82
2023-03-24T19:02:00.827Z,15.73
2023-03-24T19:04:29.184Z,14.05
2023-03-24T19:06:58.685Z,15.88
2023-03-24T19:09:29.554Z,18.75
2023-03-24T19:11:58.313Z,15.30
2023-03-24T19:14:28.457Z,15.27
2023-03-24T19:17:00.133Z,13.43
2023-03-24T19:19:33.051Z,13.35
2023-03-24T19:22:02.240Z,18.50
2023-03-24T19:24:31.656Z,15.57
2023-03-24T19:27:01.558Z,21.90
2023-03-24T19:29:31.639Z,17.73
2023-03-24T19:32:01.775Z,16.23
2023-03-24T19:34:31.049Z,19.25
2023-03-24T19:36:59.329Z,17.35
2023-03-24T19:39:28.701Z,20.75
2023-03-24T19:41:58.402Z,19.25
2023-03-24T19:44:26.676Z,18.33
2023-03-24T19:46:55.134Z,22.45
2023-03-24T19:49:23.770Z,21.17
2023-03-24T19:51:53.157Z,15.63
2023-03-24T19:54:22.935Z,14.93
2023-03-24T19:56:51.850Z,14.60
2023-03-24T19:59:20.483Z,10.50
2023-03-24T20:01:49.240Z,12.70
2023-03-24T20:04:25.140Z,11.00
2023-03-24T20:06:55.421Z,8.30
2023-03-24T20:09:23.863Z,9.65
2023-03-24T20:11:54.214Z,8.80
2023-03-24T20:14:22.948Z,12.18
2023-03-24T20:16:50.863Z,12.70
2023-03-24T20:19:20.603Z,11.77
2023-03-24T20:21:49.606Z,11.38
2023-03-24T20:24:20.243Z,14.13
2023-03-24T20:26:52.057Z,16.13
2023-03-24T20:29:20.654Z,14.10
2023-03-24T20:31:50.783Z,13.20
2023-03-24T20:34:22.416Z,14.70
2023-03-24T20:36:53.733Z,15.57
2023-03-24T20:39:27.857Z,14.90
2023-03-24T20:41:56.963Z,15.10
2023-03-24T20:44:26.063Z,14.73
2023-03-24T20:46:57.827Z,17.08
2023-03-24T20:49:28.058Z,12.75
2023-03-24T20:51:57.083Z,17.40
2023-03-24T20:54:25.597Z,19.05
2023-03-24T20:56:54.321Z,12.18
2023-03-24T20:59:23.182Z,17.25
2023-03-24T21:01:51.709Z,10.18
2023-03-24T21:04:20.424Z,9.75
2023-03-24T21:06:48.373Z,11.70
2023-03-24T21:09:17.401Z,10.30
2023-03-24T21:11:45.876Z,10.40
2023-03-24T21:14:14.242Z,8.95
2023-03-24T21:16:42.685Z,11.82
2023-03-24T21:19:13.448Z,8.40
2023-03-24T21:21:42.992Z,7.80
2023-03-24T21:24:13.554Z,7.00
2023-03-24T21:26:41.756Z,7.88
2023-03-24T21:29:12.420Z,7.78
2023-03-24T21:31:41.911Z,6.78
2023-03-24T21:34:09.792Z,9.52
2023-03-24T21:36:38.590Z,5.05
2023-03-24T21:39:12.096Z,6.32
2023-03-24T21:41:39.807Z,4.35
2023-03-24T21:44:09.521Z,6.22
2023-03-24T21:46:37.190Z,5.90
2023-03-24T21:49:05.376Z,6.63
2023-03-24T21:51:34.648Z,5.28
2023-03-24T21:54:04.648Z,4.13
2023-03-24T21:56:33.961Z,3.00
2023-03-24T21:59:01.594Z,2.42
2023-03-24T22:01:29.407Z,3.55
2023-03-24T22:03:58.901Z,5.60
2023-03-24T22:06:29.066Z,2.40
2023-03-24T22:08:58.571Z,3.22
2023-03-24T22:11:26.377Z,2.65
2023-03-24T22:13:53.873Z,4.88
2023-03-24T22:16:21.110Z,2.47
2023-03-24T22:18:48.288Z,2.63
2023-03-24T22:21:15.458Z,3.53
2023-03-24T22:23:43.033Z,3.55
2023-03-24T22:26:14.810Z,2.22
2023-03-24T22:28:42.615Z,1.85
2023-03-24T22:31:16.748Z,2.80
2023-03-24T22:33:44.500Z,4.22
2023-03-24T22:36:12.410Z,4.82
2023-03-24T22:38:40.004Z,3.92
2023-03-24T22:41:11.624Z,2.03
2023-03-24T22:43:41.873Z,1.42
2023-03-24T22:46:10.788Z,2.00
2023-03-24T22:48:41.189Z,1.15
2023-03-24T22:51:09.483Z,1.50
2023-03-24T22:53:36.742Z,1.10
2023-03-24T22:56:06.235Z,1.88
2023-03-24T22:58:35.095Z,2.08
2023-03-24T23:01:03.715Z,1.02
2023-03-24T23:03:30.936Z,1.75
2023-03-24T23:06:03.744Z,2.40
2023-03-24T23:08:35.126Z,1.10
2023-03-24T23:11:02.290Z,2.35
2023-03-24T23:13:30.825Z,1.33
2023-03-24T23:15:58.285Z,2.65
2023-03-24T23:18:25.480Z,4.72
2023-03-24T23:21:07.265Z,2.10
2023-03-24T23:23:35.967Z,0.88
2023-03-24T23:26:05.571Z,0.90
2023-03-24T23:28:35.444Z,0.70
2023-03-24T23:31:02.652Z,1.10
2023-03-24T23:33:29.870Z,0.68
2023-03-24T23:35:58.720Z,1.30
2023-03-24T23:38:26.531Z,3.88
2023-03-24T23:40:53.610Z,1.23
2023-03-24T23:43:21.338Z,1.33
2023-03-24T23:45:48.596Z,1.77
2023-03-24T23:48:15.999Z,0.85
2023-03-24T23:50:46.314Z,0.63
2023-03-24T23:53:13.379Z,0.60
2023-03-24T23:55:41.881Z,1.75
2023-03-24T23:58:09.009Z,0.77
